createdAt,value
2022-08-25T00:02:13.039Z,95.40
2022-08-25T00:04:40.295Z,95.50
2022-08-25T00:07:07.880Z,95.50
2022-08-25T00:09:35.921Z,95.80
2022-08-25T00:12:03.715Z,95.60
2022-08-25T00:14:34.105Z,95.70
2022-08-25T00:17:01.897Z,95.80
2022-08-25T00:19:32.216Z,95.90
2022-08-25T00:22:00.696Z,96.10
2022-08-25T00:24:28.479Z,96.20
2022-08-25T00:26:57.837Z,96.30
2022-08-25T00:29:26.350Z,96.40
2022-08-25T00:31:53.869Z,96.40
2022-08-25T00:34:25.714Z,96.60
2022-08-25T00:36:52.860Z,96.70
2022-08-25T00:39:21.242Z,96.90
2022-08-25T00:41:50.262Z,97.00
2022-08-25T00:44:18.712Z,97.10
2022-08-25T00:46:51.247Z,97.20
2022-08-25T00:49:31.492Z,97.30
2022-08-25T00:52:14.914Z,97.40
2022-08-25T00:54:47.585Z,97.50
2022-08-25T00:57:18.141Z,97.50
2022-08-25T00:59:48.802Z,97.50
2022-08-25T01:02:17.348Z,97.60
2022-08-25T01:04:48.968Z,97.80
2022-08-25T01:07:18.555Z,97.80
2022-08-25T01:09:47.761Z,97.90
2022-08-25T01:12:16.198Z,98.00
2022-08-25T01:14:45.900Z,98.00
2022-08-25T01:17:13.957Z,98.10
2022-08-25T01:19:40.762Z,98.20
2022-08-25T01:22:07.481Z,98.30
2022-08-25T01:24:44.851Z,98.40
2022-08-25T01:27:11.850Z,98.60
2022-08-25T01:29:39.527Z,98.90
2022-08-25T01:32:10.210Z,99.20
2022-08-25T01:34:40.546Z,98.90
2022-08-25T01:37:08.158Z,99.50
2022-08-25T01:39:38.703Z,99.70
2022-08-25T01:42:11.357Z,99.80
2022-08-25T01:44:41.864Z,99.90
2022-08-25T01:47:08.962Z,99.90
2022-08-25T01:49:35.839Z,99.90
2022-08-25T01:52:02.360Z,99.90
2022-08-25T01:54:28.909Z,99.90
2022-08-25T01:56:55.578Z,99.90
2022-08-25T01:59:24.141Z,99.90
2022-08-25T02:01:51.763Z,99.90
2022-08-25T02:04:26.864Z,99.90
2022-08-25T02:06:53.504Z,99.90
2022-08-25T02:09:20.052Z,99.90
2022-08-25T02:11:47.810Z,99.90
2022-08-25T02:14:15.521Z,99.90
2022-08-25T02:16:46.078Z,99.90
2022-08-25T02:19:12.753Z,99.90
2022-08-25T02:21:39.750Z,99.90
2022-08-25T02:24:07.580Z,99.90
2022-08-25T02:26:34.455Z,99.90
2022-08-25T02:29:01.210Z,99.90
2022-08-25T02:31:28.800Z,99.90
2022-08-25T02:33:57.195Z,99.90
2022-08-25T02:36:24.483Z,99.90
2022-08-25T02:38:51.419Z,99.90
2022-08-25T02:41:21.462Z,99.90
2022-08-25T02:43:48.854Z,99.90
2022-08-25T02:46:17.041Z,99.90
2022-08-25T02:48:44.499Z,99.90
2022-08-25T02:51:12.258Z,99.90
2022-08-25T02:53:41.781Z,99.90
2022-08-25T02:56:11.174Z,99.90
2022-08-25T02:58:40.002Z,99.90
2022-08-25T03:01:07.648Z,99.90
2022-08-25T03:03:39.230Z,99.90
2022-08-25T03:06:08.584Z,99.90
2022-08-25T03:08:36.289Z,99.90
2022-08-25T03:11:04.291Z,99.90
2022-08-25T03:13:32.154Z,99.90
2022-08-25T03:16:00.347Z,99.90
2022-08-25T03:18:27.585Z,99.90
2022-08-25T03:20:55.032Z,99.90
2022-08-25T03:23:21.672Z,99.90
2022-08-25T03:26:06.778Z,99.90
2022-08-25T03:28:33.882Z,99.90
2022-08-25T03:31:01.134Z,99.90
2022-08-25T03:33:29.501Z,99.90
2022-08-25T03:35:56.504Z,99.90
2022-08-25T03:38:25.239Z,99.90
2022-08-25T03:40:52.752Z,99.90
2022-08-25T03:43:19.826Z,99.90
2022-08-25T03:45:47.669Z,99.90
2022-08-25T03:48:16.083Z,99.90
2022-08-25T03:50:51.734Z,99.90
2022-08-25T03:53:19.716Z,99.90
2022-08-25T03:55:46.698Z,99.90
2022-08-25T03:58:13.491Z,99.90
2022-08-25T04:00:40.820Z,99.90
2022-08-25T04:03:07.811Z,99.90
2022-08-25T04:05:35.214Z,99.90
2022-08-25T04:08:02.063Z,99.90
2022-08-25T04:10:29.281Z,99.90
2022-08-25T04:12:56.316Z,99.90
2022-08-25T04:15:23.929Z,99.90
2022-08-25T04:17:55.350Z,99.90
2022-08-25T04:20:22.023Z,99.90
2022-08-25T04:22:48.648Z,99.90
2022-08-25T04:25:15.280Z,99.90
2022-08-25T04:27:42.149Z,99.90
2022-08-25T04:30:09.844Z,99.90
2022-08-25T04:32:37.338Z,99.90
2022-08-25T04:35:05.410Z,99.90
2022-08-25T04:37:33.487Z,99.90
2022-08-25T04:40:00.407Z,99.90
2022-08-25T04:42:27.354Z,99.90
2022-08-25T04:44:54.551Z,99.90
2022-08-25T04:47:21.517Z,99.90
2022-08-25T04:49:48.362Z,99.90
2022-08-25T04:52:15.129Z,99.90
2022-08-25T04:54:42.344Z,99.90
2022-08-25T04:57:09.478Z,99.90
2022-08-25T04:59:36.243Z,99.90
2022-08-25T05:02:05.020Z,99.90
2022-08-25T05:04:33.399Z,99.90
2022-08-25T05:07:00.719Z,99.90
2022-08-25T05:09:28.125Z,99.90
2022-08-25T05:11:55.270Z,99.90
2022-08-25T05:14:25.680Z,99.90
2022-08-25T05:16:56.498Z,99.90
2022-08-25T05:19:24.091Z,99.90
2022-08-25T05:21:51.598Z,99.90
2022-08-25T05:24:18.640Z,99.90
2022-08-25T05:26:45.250Z,99.90
2022-08-25T05:29:12.019Z,99.90
2022-08-25T05:31:43.187Z,99.90
2022-08-25T05:34:12.172Z,99.90
2022-08-25T05:36:43.074Z,99.90
2022-08-25T05:39:10.461Z,99.90
2022-08-25T05:41:37.390Z,99.90
2022-08-25T05:44:04.709Z,99.90
2022-08-25T05:46:31.612Z,99.90
2022-08-25T05:48:58.890Z,99.90
2022-08-25T05:51:26.223Z,99.90
2022-08-25T05:53:52.945Z,99.90
2022-08-25T05:56:20.050Z,99.90
2022-08-25T05:58:47.707Z,99.90
2022-08-25T06:01:45.391Z,99.90
2022-08-25T06:04:13.333Z,99.90
2022-08-25T06:06:40.531Z,99.90
2022-08-25T06:09:09.356Z,99.90
2022-08-25T06:11:39.658Z,99.90
2022-08-25T06:14:07.534Z,99.90
2022-08-25T06:16:34.273Z,99.90
2022-08-25T06:19:01.223Z,99.90
2022-08-25T06:21:27.943Z,99.90
2022-08-25T06:23:54.598Z,99.90
2022-08-25T06:26:21.714Z,99.90
2022-08-25T06:28:51.723Z,99.90
2022-08-25T06:31:19.732Z,99.90
2022-08-25T06:33:46.670Z,99.90
2022-08-25T06:36:13.487Z,99.90
2022-08-25T06:38:40.238Z,99.90
2022-08-25T06:41:08.310Z,99.90
2022-08-25T06:43:35.109Z,99.90
2022-08-25T06:46:17.601Z,99.90
2022-08-25T06:48:44.376Z,99.90
2022-08-25T06:51:14.336Z,99.90
2022-08-25T06:53:42.742Z,99.90
2022-08-25T06:56:10.732Z,99.90
2022-08-25T06:58:37.999Z,99.90
2022-08-25T07:01:19.822Z,99.90
2022-08-25T07:03:48.483Z,99.90
2022-08-25T07:06:18.227Z,99.90
2022-08-25T07:08:46.362Z,99.90
2022-08-25T07:11:15.910Z,99.90
2022-08-25T07:13:44.294Z,99.90
2022-08-25T07:16:11.397Z,99.90
2022-08-25T07:18:38.739Z,99.90
2022-08-25T07:21:05.696Z,99.90
2022-08-25T07:23:36.490Z,99.90
2022-08-25T07:26:33.572Z,99.90
2022-08-25T07:28:59.657Z,99.90
2022-08-25T07:31:29.337Z,99.90
2022-08-25T07:34:16.414Z,99.90
2022-08-25T07:36:43.408Z,99.90
2022-08-25T07:39:11.033Z,99.90
2022-08-25T07:41:41.081Z,99.90
2022-08-25T07:44:10.552Z,99.90
2022-08-25T07:46:37.795Z,99.90
2022-08-25T07:49:05.276Z,99.90
2022-08-25T07:51:44.179Z,99.90
2022-08-25T07:54:34.190Z,99.90
2022-08-25T07:57:01.951Z,99.90
2022-08-25T07:59:28.900Z,99.90
2022-08-25T08:01:55.550Z,99.90
2022-08-25T08:04:22.242Z,99.90
2022-08-25T08:06:48.805Z,99.90
2022-08-25T08:09:16.187Z,99.90
2022-08-25T08:11:53.645Z,99.90
2022-08-25T08:14:20.890Z,99.90
2022-08-25T08:16:47.491Z,99.90
2022-08-25T08:19:14.067Z,99.90
2022-08-25T08:21:40.936Z,99.90
2022-08-25T08:24:24.913Z,99.90
2022-08-25T08:26:59.080Z,99.90
2022-08-25T08:29:26.260Z,99.90
2022-08-25T08:31:53.247Z,99.90
2022-08-25T08:34:20.024Z,99.90
2022-08-25T08:36:51.903Z,99.90
2022-08-25T08:39:18.544Z,99.90
2022-08-25T08:42:17.313Z,99.90
2022-08-25T08:44:46.901Z,99.90
2022-08-25T08:47:47.410Z,99.90
2022-08-25T08:50:34.362Z,99.90
2022-08-25T08:53:09.767Z,99.90
2022-08-25T08:55:43.916Z,99.90
2022-08-25T08:58:21.166Z,99.90
2022-08-25T09:00:56.000Z,99.90
2022-08-25T09:03:39.733Z,99.90
2022-08-25T09:06:14.209Z,99.90
2022-08-25T09:08:44.878Z,99.90
2022-08-25T09:11:31.021Z,99.90
2022-08-25T09:14:10.389Z,99.90
2022-08-25T09:16:54.850Z,99.90
2022-08-25T09:19:48.048Z,99.90
2022-08-25T09:22:34.318Z,99.90
2022-08-25T09:25:52.585Z,99.90
2022-08-25T09:28:28.406Z,99.90
2022-08-25T09:31:03.233Z,99.90
2022-08-25T09:33:35.747Z,99.90
2022-08-25T09:36:05.991Z,99.90
2022-08-25T09:38:33.124Z,99.90
2022-08-25T09:41:01.908Z,99.90
2022-08-25T09:43:41.990Z,99.90
2022-08-25T09:46:08.564Z,99.90
2022-08-25T09:48:45.064Z,99.90
2022-08-25T09:51:20.944Z,99.90
2022-08-25T09:54:13.390Z,99.90
2022-08-25T09:56:55.281Z,99.90
2022-08-25T09:59:34.420Z,99.90
2022-08-25T10:02:28.817Z,99.90
2022-08-25T10:04:55.866Z,99.90
2022-08-25T10:07:28.737Z,99.90
2022-08-25T10:09:59.109Z,99.90
2022-08-25T10:12:43.270Z,99.90
2022-08-25T10:15:37.315Z,99.90
2022-08-25T10:18:25.796Z,99.90
2022-08-25T10:21:09.371Z,99.90
2022-08-25T10:23:46.623Z,99.90
2022-08-25T10:26:26.081Z,99.90
2022-08-25T10:29:07.540Z,99.60
2022-08-25T10:31:48.223Z,99.40
2022-08-25T10:34:53.658Z,99.20
2022-08-25T10:37:38.612Z,99.20
2022-08-25T10:40:16.476Z,99.20
2022-08-25T10:43:10.980Z,98.80
2022-08-25T10:45:57.098Z,98.50
2022-08-25T10:48:43.899Z,98.60
2022-08-25T10:51:31.488Z,98.80
2022-08-25T10:54:23.928Z,98.70
2022-08-25T10:57:14.790Z,99.10
2022-08-25T10:59:57.621Z,98.70
2022-08-25T11:02:34.155Z,98.50
2022-08-25T11:05:04.035Z,98.60
2022-08-25T11:07:37.885Z,98.50
2022-08-25T11:10:36.250Z,98.50
2022-08-25T11:13:11.245Z,98.70
2022-08-25T11:16:13.689Z,98.40
2022-08-25T11:18:50.837Z,98.30
2022-08-25T11:21:44.729Z,98.10
2022-08-25T11:24:54.201Z,98.00
2022-08-25T11:28:12.788Z,98.00
2022-08-25T11:30:40.886Z,97.80
2022-08-25T11:33:12.038Z,98.10
2022-08-25T11:35:46.667Z,97.70
2022-08-25T11:38:29.169Z,97.60
2022-08-25T11:41:16.709Z,97.40
2022-08-25T11:44:06.625Z,97.50
2022-08-25T11:46:42.187Z,97.60
2022-08-25T11:49:31.973Z,96.70
2022-08-25T11:52:02.978Z,96.60
2022-08-25T11:54:42.614Z,96.70
2022-08-25T11:57:27.523Z,96.60
2022-08-25T11:59:56.977Z,96.40
2022-08-25T12:02:50.422Z,96.30
2022-08-25T12:05:17.041Z,95.80
2022-08-25T12:08:18.732Z,96.10
2022-08-25T12:11:11.280Z,96.30
2022-08-25T12:13:47.570Z,96.50
2022-08-25T12:16:36.055Z,96.40
2022-08-25T12:19:49.351Z,96.30
2022-08-25T12:22:15.904Z,96.20
2022-08-25T12:24:48.008Z,96.40
2022-08-25T12:27:51.350Z,96.10
2022-08-25T12:30:21.203Z,96.20
2022-08-25T12:32:47.987Z,95.50
2022-08-25T12:35:24.694Z,95.70
2022-08-25T12:38:10.281Z,95.60
2022-08-25T12:40:43.292Z,95.30
2022-08-25T12:43:33.404Z,95.30
2022-08-25T12:46:26.200Z,95.30
2022-08-25T12:49:01.924Z,95.30
2022-08-25T12:51:51.910Z,95.30
2022-08-25T12:54:53.747Z,95.20
2022-08-25T12:57:41.968Z,94.60
2022-08-25T13:00:21.170Z,94.70
2022-08-25T13:02:56.872Z,94.60
2022-08-25T13:05:55.055Z,94.70
2022-08-25T13:08:36.981Z,94.70
2022-08-25T13:11:10.981Z,94.60
2022-08-25T13:13:46.496Z,94.70
2022-08-25T13:16:25.706Z,94.80
2022-08-25T13:18:59.055Z,94.40
2022-08-25T13:21:33.396Z,94.40
2022-08-25T13:24:05.954Z,94.30
2022-08-25T13:26:47.242Z,94.10
2022-08-25T13:29:18.612Z,94.00
2022-08-25T13:31:57.412Z,93.80
2022-08-25T13:34:34.241Z,93.80
2022-08-25T13:37:29.799Z,93.90
2022-08-25T13:40:25.863Z,93.60
2022-08-25T13:42:59.045Z,93.60
2022-08-25T13:45:31.929Z,93.80
2022-08-25T13:47:59.065Z,93.70
2022-08-25T13:50:26.407Z,93.80
2022-08-25T13:52:56.850Z,93.60
2022-08-25T13:55:28.608Z,93.70
2022-08-25T13:57:58.069Z,94.00
2022-08-25T14:00:38.636Z,93.60
2022-08-25T14:03:12.695Z,93.20
2022-08-25T14:05:42.330Z,93.50
2022-08-25T14:08:31.484Z,93.50
2022-08-25T14:11:14.566Z,93.20
2022-08-25T14:13:45.101Z,93.10
2022-08-25T14:16:22.768Z,93.20
2022-08-25T14:18:55.282Z,93.10
2022-08-25T14:21:27.982Z,93.10
2022-08-25T14:23:56.944Z,93.10
2022-08-25T14:26:24.547Z,92.90
2022-08-25T14:28:53.289Z,93.00
2022-08-25T14:31:31.296Z,93.00
2022-08-25T14:34:05.236Z,93.10
2022-08-25T14:36:34.469Z,93.20
2022-08-25T14:39:06.112Z,93.00
2022-08-25T14:41:38.678Z,92.90
2022-08-25T14:44:05.758Z,92.60
2022-08-25T14:46:36.386Z,92.40
2022-08-25T14:49:06.820Z,92.40
2022-08-25T14:51:34.094Z,92.10
2022-08-25T14:54:06.180Z,92.10
2022-08-25T14:56:33.933Z,92.00
2022-08-25T14:59:01.386Z,91.90
2022-08-25T15:01:31.737Z,92.10
2022-08-25T15:04:15.664Z,92.20
2022-08-25T15:06:43.758Z,91.90
2022-08-25T15:09:16.093Z,92.00
2022-08-25T15:11:45.645Z,91.80
2022-08-25T15:14:15.710Z,91.80
2022-08-25T15:16:47.707Z,91.60
2022-08-25T15:19:17.809Z,91.70
2022-08-25T15:21:46.758Z,91.70
2022-08-25T15:24:17.557Z,91.50
2022-08-25T15:26:56.658Z,91.50
2022-08-25T15:29:26.152Z,91.50
2022-08-25T15:31:53.005Z,91.50
2022-08-25T15:34:19.646Z,91.40
2022-08-25T15:36:46.608Z,90.90
2022-08-25T15:39:14.481Z,90.90
2022-08-25T15:41:42.745Z,91.00
2022-08-25T15:44:11.283Z,91.10
2022-08-25T15:46:41.690Z,91.30
2022-08-25T15:49:13.972Z,91.30
2022-08-25T15:51:47.547Z,91.20
2022-08-25T15:54:15.020Z,91.40
2022-08-25T15:56:43.109Z,91.50
2022-08-25T15:59:10.083Z,91.60
2022-08-25T16:01:37.070Z,91.60
2022-08-25T16:04:03.880Z,91.70
2022-08-25T16:06:31.526Z,91.40
2022-08-25T16:08:58.850Z,91.70
2022-08-25T16:11:28.006Z,91.50
2022-08-25T16:13:57.813Z,91.30
2022-08-25T16:16:26.857Z,91.40
2022-08-25T16:18:53.854Z,91.40
2022-08-25T16:21:29.060Z,91.40
2022-08-25T16:23:59.913Z,91.40
2022-08-25T16:26:29.426Z,90.90
2022-08-25T16:28:56.266Z,91.70
2022-08-25T16:31:24.031Z,91.80
2022-08-25T16:33:53.561Z,91.90
2022-08-25T16:36:27.122Z,92.00
2022-08-25T16:38:57.202Z,92.00
2022-08-25T16:41:27.111Z,92.10
2022-08-25T16:43:54.183Z,92.10
2022-08-25T16:46:23.911Z,92.20
2022-08-25T16:48:50.818Z,92.20
2022-08-25T16:51:19.450Z,92.10
2022-08-25T16:54:08.158Z,92.10
2022-08-25T16:56:36.978Z,91.90
2022-08-25T16:59:06.329Z,92.10
2022-08-25T17:01:36.188Z,92.10
2022-08-25T17:04:03.783Z,92.10
2022-08-25T17:06:35.291Z,92.20
2022-08-25T17:09:01.992Z,92.70
2022-08-25T17:11:34.949Z,92.10
2022-08-25T17:14:04.459Z,91.90
2022-08-25T17:16:37.857Z,91.80
2022-08-25T17:19:11.789Z,92.00
2022-08-25T17:21:45.050Z,92.00
2022-08-25T17:24:12.684Z,92.10
2022-08-25T17:26:41.646Z,92.00
2022-08-25T17:29:09.127Z,91.90
2022-08-25T17:31:39.667Z,91.80
2022-08-25T17:34:10.466Z,91.90
2022-08-25T17:36:38.074Z,92.10
2022-08-25T17:39:08.009Z,92.40
2022-08-25T17:41:34.905Z,92.50
2022-08-25T17:44:04.701Z,92.60
2022-08-25T17:46:31.374Z,92.90
2022-08-25T17:48:58.084Z,93.10
2022-08-25T17:51:25.268Z,93.20
2022-08-25T17:53:52.741Z,93.10
2022-08-25T17:56:22.270Z,93.30
2022-08-25T17:58:50.625Z,93.40
2022-08-25T18:01:29.455Z,93.30
2022-08-25T18:03:58.835Z,93.60
2022-08-25T18:06:29.337Z,94.30
2022-08-25T18:08:59.946Z,94.50
2022-08-25T18:11:28.657Z,94.40
2022-08-25T18:13:56.036Z,94.30
2022-08-25T18:16:24.493Z,94.20
2022-08-25T18:18:51.970Z,94.30
2022-08-25T18:21:20.473Z,94.40
2022-08-25T18:23:47.714Z,94.40
2022-08-25T18:26:15.776Z,94.60
2022-08-25T18:28:43.966Z,94.70
2022-08-25T18:31:12.009Z,94.90
2022-08-25T18:33:41.911Z,94.90
2022-08-25T18:36:09.583Z,95.20
2022-08-25T18:38:57.785Z,95.20
2022-08-25T18:41:26.285Z,95.30
2022-08-25T18:43:53.108Z,95.40
2022-08-25T18:46:22.665Z,95.50
2022-08-25T18:48:49.709Z,95.60
2022-08-25T18:51:22.877Z,95.70
2022-08-25T18:53:51.102Z,95.80
2022-08-25T18:56:22.359Z,96.00
2022-08-25T18:58:48.986Z,96.20
2022-08-25T19:01:17.429Z,96.40
2022-08-25T19:03:45.511Z,96.70
2022-08-25T19:06:12.393Z,96.90
2022-08-25T19:08:41.624Z,97.00
2022-08-25T19:11:09.613Z,97.00
2022-08-25T19:13:36.650Z,97.10
2022-08-25T19:16:20.366Z,97.10
2022-08-25T19:18:48.965Z,97.30
2022-08-25T19:21:22.589Z,97.40
2022-08-25T19:23:50.891Z,97.50
2022-08-25T19:26:18.485Z,97.70
2022-08-25T19:28:48.888Z,97.80
2022-08-25T19:31:18.164Z,98.00
2022-08-25T19:33:46.410Z,98.20
2022-08-25T19:36:14.293Z,98.30
2022-08-25T19:38:41.548Z,98.40
2022-08-25T19:41:10.483Z,98.50
2022-08-25T19:43:56.695Z,98.70
2022-08-25T19:46:36.119Z,97.90
2022-08-25T19:49:13.349Z,98.80
2022-08-25T19:51:44.141Z,98.90
2022-08-25T19:54:17.169Z,99.00
2022-08-25T19:56:54.231Z,99.50
2022-08-25T19:59:36.637Z,99.30
2022-08-25T20:02:12.707Z,99.50
2022-08-25T20:04:42.915Z,99.60
2022-08-25T20:07:17.236Z,99.70
2022-08-25T20:09:45.204Z,99.80
2022-08-25T20:12:12.546Z,99.90
2022-08-25T20:14:39.619Z,99.90
2022-08-25T20:17:13.653Z,99.90
2022-08-25T20:19:41.449Z,99.90
2022-08-25T20:22:11.203Z,99.90
2022-08-25T20:24:50.950Z,99.90
2022-08-25T20:27:25.626Z,99.90
2022-08-25T20:29:52.792Z,99.90
2022-08-25T20:32:19.907Z,99.90
2022-08-25T20:34:47.239Z,99.90
2022-08-25T20:37:13.915Z,99.90
2022-08-25T20:39:41.614Z,99.90
2022-08-25T20:42:08.629Z,99.90
2022-08-25T20:44:41.790Z,99.90
2022-08-25T20:47:10.550Z,99.90
2022-08-25T20:49:39.165Z,99.90
2022-08-25T20:52:06.753Z,99.90
2022-08-25T20:54:33.781Z,99.90
2022-08-25T20:57:00.520Z,99.90
2022-08-25T20:59:29.458Z,99.90
2022-08-25T21:01:56.497Z,99.90
2022-08-25T21:04:29.249Z,99.90
2022-08-25T21:06:57.644Z,99.90
2022-08-25T21:09:24.805Z,99.90
2022-08-25T21:11:53.220Z,99.90
2022-08-25T21:14:21.244Z,99.90
2022-08-25T21:16:48.846Z,99.90
2022-08-25T21:19:17.709Z,99.90
2022-08-25T21:21:54.004Z,99.90
2022-08-25T21:24:26.950Z,99.90
2022-08-25T21:26:55.804Z,99.90
2022-08-25T21:29:23.912Z,99.90
2022-08-25T21:31:51.098Z,99.90
2022-08-25T21:34:18.597Z,99.90
2022-08-25T21:36:46.494Z,99.90
2022-08-25T21:39:14.424Z,99.90
2022-08-25T21:41:43.001Z,99.90
2022-08-25T21:44:10.614Z,99.90
2022-08-25T21:46:37.951Z,99.90
2022-08-25T21:49:06.745Z,99.90
2022-08-25T21:51:40.797Z,99.90
2022-08-25T21:54:11.334Z,99.90
2022-08-25T21:56:42.348Z,99.90
2022-08-25T21:59:13.486Z,99.90
2022-08-25T22:01:41.155Z,99.90
2022-08-25T22:04:08.888Z,99.90
2022-08-25T22:06:35.962Z,99.90
2022-08-25T22:09:05.007Z,99.90
2022-08-25T22:11:33.941Z,99.90
2022-08-25T22:14:04.407Z,99.90
2022-08-25T22:16:33.348Z,99.90
2022-08-25T22:19:00.514Z,99.90
2022-08-25T22:21:28.301Z,99.90
2022-08-25T22:23:55.931Z,99.90
2022-08-25T22:26:24.172Z,99.90
2022-08-25T22:28:54.062Z,99.90
2022-08-25T22:31:21.185Z,99.90
2022-08-25T22:33:49.110Z,99.90
2022-08-25T22:36:19.045Z,99.90
2022-08-25T22:38:47.401Z,99.90
2022-08-25T22:41:19.130Z,99.90
2022-08-25T22:43:49.363Z,99.90
2022-08-25T22:46:19.069Z,99.90
2022-08-25T22:48:46.138Z,99.90
2022-08-25T22:51:15.816Z,99.90
2022-08-25T22:53:44.923Z,99.90
2022-08-25T22:56:13.340Z,99.90
2022-08-25T22:58:51.835Z,99.90
2022-08-25T23:01:19.729Z,99.90
2022-08-25T23:03:47.678Z,99.90
2022-08-25T23:06:22.140Z,99.90
2022-08-25T23:08:52.963Z,99.90
2022-08-25T23:11:21.205Z,99.90
2022-08-25T23:13:47.872Z,99.90
2022-08-25T23:16:14.977Z,99.90
2022-08-25T23:18:43.861Z,99.90
2022-08-25T23:21:31.513Z,99.90
2022-08-25T23:24:02.017Z,99.90
2022-08-25T23:26:29.301Z,99.90
2022-08-25T23:28:56.075Z,99.90
2022-08-25T23:31:22.671Z,99.90
2022-08-25T23:33:51.310Z,99.90
2022-08-25T23:36:19.423Z,99.90
2022-08-25T23:38:51.585Z,99.90
2022-08-25T23:41:21.297Z,99.90
2022-08-25T23:43:49.426Z,99.90
2022-08-25T23:46:18.615Z,99.90
2022-08-25T23:48:45.321Z,99.90
2022-08-25T23:51:12.679Z,99.90
2022-08-25T23:53:39.572Z,99.90
2022-08-25T23:56:06.417Z,99.90
2022-08-25T23:58:32.998Z,99.90
